createdAt,value
2022-10-22T00:06:47.150Z,7.10
2022-10-22T00:09:16.235Z,7.87
2022-10-22T00:11:43.691Z,6.63
2022-10-22T00:14:11.701Z,6.70
2022-10-22T00:16:40.450Z,11.37
2022-10-22T00:19:08.831Z,12.57
2022-10-22T00:21:36.299Z,11.83
2022-10-22T00:29:05.423Z,14.10
2022-10-22T00:31:32.839Z,11.10
2022-10-22T00:34:00.708Z,15.37
2022-10-22T00:36:28.533Z,12.83
2022-10-22T00:38:56.081Z,13.87
2022-10-22T00:41:23.953Z,7.80
2022-10-22T00:43:57.251Z,8.07
2022-10-22T00:59:48.411Z,5.57
2022-10-22T01:02:16.161Z,6.77
2022-10-22T01:04:44.069Z,7.13
2022-10-22T01:07:30.721Z,6.37
2022-10-22T01:10:37.592Z,6.60
2022-10-22T01:13:17.542Z,8.30
2022-10-22T01:15:53.642Z,7.47
2022-10-22T01:18:29.231Z,7.57
2022-10-22T01:26:07.632Z,7.47
2022-10-22T01:28:56.323Z,7.90
2022-10-22T01:31:25.904Z,6.83
2022-10-22T01:33:56.011Z,7.43
2022-10-22T01:36:28.411Z,6.90
2022-10-22T01:38:57.241Z,8.10
2022-10-22T01:41:25.062Z,7.07
2022-10-22T01:49:51.039Z,6.83
2022-10-22T01:52:46.741Z,7.93
2022-10-22T01:55:30.142Z,5.63
2022-10-22T01:58:06.288Z,4.83
2022-10-22T02:00:38.783Z,4.50
2022-10-22T02:03:11.881Z,4.60
2022-10-22T02:05:48.090Z,3.17
2022-10-22T02:23:52.134Z,1.40
2022-10-22T02:26:27.768Z,1.50
2022-10-22T02:29:02.111Z,3.00
2022-10-22T02:31:32.614Z,2.33
2022-10-22T02:34:07.475Z,2.27
2022-10-22T02:36:36.061Z,1.90
2022-10-22T02:39:09.410Z,2.10
2022-10-22T02:44:41.472Z,1.83
2022-10-22T02:47:26.450Z,1.47
2022-10-22T02:53:47.320Z,1.27
2022-10-22T02:56:44.931Z,1.53
2022-10-22T02:59:18.049Z,2.20
2022-10-22T03:02:14.131Z,2.53
2022-10-22T03:04:53.562Z,4.03
2022-10-22T03:07:21.639Z,3.37
2022-10-22T03:09:57.969Z,3.03
2022-10-22T03:17:57.822Z,2.37
2022-10-22T03:20:25.356Z,2.83
2022-10-22T03:22:53.960Z,2.20
2022-10-22T03:25:25.410Z,2.17
2022-10-22T03:27:55.120Z,1.97
2022-10-22T03:30:22.911Z,1.50
2022-10-22T03:32:51.340Z,2.00
2022-10-22T03:38:15.870Z,2.27
2022-10-22T03:40:46.446Z,1.47
2022-10-22T03:43:17.912Z,1.40
2022-10-22T03:45:45.720Z,1.70
2022-10-22T03:48:13.273Z,2.03
2022-10-22T03:50:44.139Z,1.77
2022-10-22T03:53:11.519Z,4.13
2022-10-22T03:55:42.590Z,6.03
2022-10-22T04:05:42.087Z,5.17
2022-10-22T04:08:09.561Z,5.17
2022-10-22T04:10:37.269Z,4.63
2022-10-22T04:13:04.570Z,5.50
2022-10-22T04:15:32.509Z,5.63
2022-10-22T04:17:59.979Z,5.40
2022-10-22T04:20:27.920Z,5.80
2022-10-22T04:26:00.381Z,7.77
2022-10-22T04:28:28.327Z,7.70
2022-10-22T04:30:56.632Z,8.27
2022-10-22T04:33:24.390Z,7.47
2022-10-22T04:35:51.738Z,7.37
2022-10-22T04:38:19.221Z,6.73
2022-10-22T04:40:49.207Z,5.73
2022-10-22T04:48:16.971Z,6.93
2022-10-22T04:50:45.931Z,7.83
2022-10-22T04:53:13.940Z,7.67
2022-10-22T04:55:41.480Z,8.47
2022-10-22T04:58:09.602Z,7.27
2022-10-22T05:00:37.542Z,7.47
2022-10-22T05:06:14.893Z,6.57
2022-10-22T05:08:42.988Z,6.60
2022-10-22T05:11:15.552Z,6.07
2022-10-22T05:13:42.788Z,5.80
2022-10-22T05:16:10.922Z,6.23
2022-10-22T05:18:40.205Z,7.17
2022-10-22T05:21:10.478Z,6.93
2022-10-22T05:23:39.551Z,6.00
2022-10-22T05:41:35.978Z,4.83
2022-10-22T05:44:04.985Z,5.03
2022-10-22T05:46:36.336Z,4.57
2022-10-22T05:49:06.740Z,5.63
2022-10-22T05:51:36.484Z,5.37
2022-10-22T05:54:08.064Z,5.00
2022-10-22T05:56:37.785Z,4.70
2022-10-22T06:12:25.981Z,4.00
2022-10-22T06:14:53.661Z,4.63
2022-10-22T06:17:21.021Z,4.77
2022-10-22T06:19:48.949Z,5.80
2022-10-22T06:22:16.781Z,5.43
2022-10-22T06:24:45.235Z,5.20
2022-10-22T06:27:12.791Z,4.33
2022-10-22T06:34:50.881Z,5.90
2022-10-22T06:37:19.591Z,4.67
2022-10-22T06:39:47.738Z,5.07
2022-10-22T06:42:17.191Z,4.53
2022-10-22T06:44:44.541Z,4.97
2022-10-22T06:47:12.411Z,4.93
2022-10-22T06:49:40.562Z,4.27
2022-10-22T06:57:17.521Z,4.87
2022-10-22T06:59:45.053Z,4.80
2022-10-22T07:02:12.431Z,4.63
2022-10-22T07:04:45.138Z,4.83
2022-10-22T07:07:14.919Z,5.47
2022-10-22T07:09:44.889Z,4.80
2022-10-22T07:12:13.763Z,6.00
2022-10-22T07:19:51.321Z,7.60
2022-10-22T07:22:19.580Z,6.03
2022-10-22T07:24:48.512Z,6.33
2022-10-22T07:27:16.239Z,5.77
2022-10-22T07:29:43.846Z,6.00
2022-10-22T07:32:12.839Z,6.17
2022-10-22T07:34:43.079Z,6.43
2022-10-22T07:52:52.884Z,3.57
2022-10-22T07:55:22.601Z,3.03
2022-10-22T07:57:50.233Z,3.47
2022-10-22T08:00:20.581Z,3.67
2022-10-22T08:02:50.861Z,2.83
2022-10-22T08:05:19.180Z,2.50
2022-10-22T08:07:49.994Z,2.63
2022-10-22T08:14:38.687Z,2.40
2022-10-22T08:17:06.773Z,2.33
2022-10-22T08:19:37.603Z,2.10
2022-10-22T08:22:06.038Z,1.70
2022-10-22T08:24:36.678Z,1.87
2022-10-22T08:27:07.198Z,2.47
2022-10-22T08:29:34.772Z,1.80
2022-10-22T08:32:04.103Z,2.10
2022-10-22T08:39:08.762Z,2.00
2022-10-22T08:41:46.003Z,1.60
2022-10-22T08:44:50.889Z,1.90
2022-10-22T08:47:47.948Z,1.83
2022-10-22T08:50:34.143Z,1.80
2022-10-22T08:53:05.131Z,2.30
2022-10-22T09:01:06.751Z,2.30
2022-10-22T09:03:42.841Z,1.90
2022-10-22T09:06:15.901Z,1.80
2022-10-22T09:08:48.962Z,2.17
2022-10-22T09:11:28.308Z,2.20
2022-10-22T09:13:56.739Z,3.17
2022-10-22T09:16:37.120Z,1.90
2022-10-22T09:19:20.274Z,2.10
2022-10-22T09:27:12.011Z,1.70
2022-10-22T09:29:43.349Z,1.83
2022-10-22T09:32:12.300Z,1.87
2022-10-22T09:34:40.608Z,1.40
2022-10-22T09:37:12.921Z,2.57
2022-10-22T09:39:46.982Z,1.50
2022-10-22T09:42:18.611Z,1.50
2022-10-22T09:49:52.849Z,1.70
2022-10-22T09:52:29.792Z,1.70
2022-10-22T09:54:57.698Z,1.80
2022-10-22T09:57:27.099Z,1.47
2022-10-22T09:59:56.991Z,1.90
2022-10-22T10:02:40.281Z,1.30
2022-10-22T10:05:19.927Z,1.10
2022-10-22T10:08:07.888Z,1.43
2022-10-22T10:15:25.349Z,1.17
2022-10-22T10:18:14.778Z,1.30
2022-10-22T10:20:50.247Z,1.37
2022-10-22T10:23:26.068Z,1.20
2022-10-22T10:26:01.661Z,1.50
2022-10-22T10:28:59.689Z,1.33
2022-10-22T10:37:27.411Z,1.37
2022-10-22T10:40:17.089Z,1.50
2022-10-22T10:42:48.701Z,1.00
2022-10-22T10:45:20.928Z,1.30
2022-10-22T10:48:23.798Z,1.10
2022-10-22T10:51:06.670Z,1.00
2022-10-22T11:05:34.626Z,1.80
2022-10-22T11:08:13.562Z,1.53
2022-10-22T11:10:55.300Z,1.40
2022-10-22T11:13:30.803Z,1.57
2022-10-22T11:16:05.414Z,1.40
2022-10-22T11:18:38.011Z,1.80
2022-10-22T11:21:23.062Z,1.10
2022-10-22T11:39:37.609Z,1.93
2022-10-22T11:42:16.171Z,1.30
2022-10-22T11:47:26.523Z,1.43
2022-10-22T11:50:00.014Z,1.90
2022-10-22T11:52:42.597Z,1.30
2022-10-22T11:58:53.971Z,1.10
2022-10-22T12:01:31.992Z,1.30
2022-10-22T12:04:21.850Z,2.50
2022-10-22T12:07:01.056Z,1.00
2022-10-22T12:09:32.685Z,1.60
2022-10-22T12:12:10.743Z,1.43
2022-10-22T12:14:55.531Z,1.53
2022-10-22T12:33:42.371Z,1.80
2022-10-22T12:36:26.147Z,1.23
2022-10-22T12:39:08.075Z,1.23
2022-10-22T12:41:45.649Z,1.30
2022-10-22T12:44:23.051Z,1.37
2022-10-22T12:46:56.984Z,1.53
2022-10-22T12:49:59.712Z,1.50
2022-10-22T12:52:32.275Z,1.03
2022-10-22T12:55:08.849Z,1.00
2022-10-22T12:57:59.490Z,1.60
2022-10-22T13:06:39.800Z,2.47
2022-10-22T13:09:27.891Z,0.83
2022-10-22T13:12:06.761Z,1.10
2022-10-22T13:14:41.956Z,1.17
2022-10-22T13:17:15.989Z,0.97
2022-10-22T13:19:48.835Z,1.13
2022-10-22T13:22:37.262Z,0.93
2022-10-22T13:30:38.630Z,0.90
2022-10-22T13:36:42.229Z,1.40
2022-10-22T13:40:10.137Z,1.13
2022-10-22T13:43:08.749Z,1.30
2022-10-22T13:45:45.159Z,1.00
2022-10-22T13:52:09.119Z,1.17
2022-10-22T13:54:46.227Z,1.03
2022-10-22T13:57:41.431Z,1.20
2022-10-22T14:07:05.028Z,1.17
2022-10-22T14:09:40.283Z,1.40
2022-10-22T14:12:20.695Z,1.17
2022-10-22T14:14:51.321Z,1.37
2022-10-22T14:17:32.008Z,1.73
2022-10-22T14:20:20.502Z,1.07
2022-10-22T14:23:15.108Z,1.10
2022-10-22T14:26:58.987Z,1.50
2022-10-22T14:29:34.608Z,1.33
2022-10-22T14:34:17.421Z,1.17
2022-10-22T14:36:18.733Z,1.17
2022-10-22T14:38:49.963Z,1.20
2022-10-22T14:48:25.409Z,1.10
2022-10-22T15:02:10.312Z,1.67
2022-10-22T15:36:38.855Z,1.10
2022-10-22T15:39:12.872Z,1.40
2022-10-22T15:41:45.008Z,1.13
2022-10-22T15:44:21.533Z,1.30
2022-10-22T15:46:56.568Z,1.33
2022-10-22T15:49:28.285Z,1.07
2022-10-22T15:57:20.667Z,1.20
2022-10-22T15:59:51.531Z,1.23
2022-10-22T16:02:19.419Z,1.10
2022-10-22T16:04:47.713Z,0.90
2022-10-22T16:07:19.817Z,1.53
2022-10-22T16:09:49.759Z,1.13
2022-10-22T16:12:17.376Z,1.83
2022-10-22T16:18:48.588Z,1.07
2022-10-22T16:21:16.736Z,1.23
2022-10-22T16:23:44.680Z,0.93
2022-10-22T16:26:13.951Z,1.53
2022-10-22T16:28:41.771Z,1.03
2022-10-22T16:31:13.621Z,1.63
2022-10-22T16:33:47.761Z,1.30
2022-10-22T16:49:55.962Z,0.87
2022-10-22T16:52:24.392Z,1.30
2022-10-22T16:54:51.950Z,1.30
2022-10-22T16:57:20.119Z,1.50
2022-10-22T16:59:49.731Z,1.13
2022-10-22T17:02:18.641Z,2.93
2022-10-22T17:04:47.062Z,2.30
2022-10-22T19:19:09.908Z,1.67
2022-10-22T19:31:25.301Z,1.30
2022-10-22T19:33:58.318Z,1.67
2022-10-22T19:36:33.451Z,1.40
2022-10-22T19:39:09.309Z,1.23
2022-10-22T19:41:44.478Z,1.50
2022-10-22T19:44:15.471Z,1.20
2022-10-22T19:46:51.720Z,1.97
2022-10-22T19:54:30.960Z,1.57
2022-10-22T19:57:08.763Z,1.50
2022-10-22T19:59:39.449Z,4.20
2022-10-22T20:02:08.142Z,1.77
2022-10-22T20:04:39.941Z,1.40
2022-10-22T20:07:10.292Z,1.50
2022-10-22T20:09:44.651Z,1.63
2022-10-22T20:17:25.801Z,1.50
2022-10-22T20:19:53.735Z,1.50
2022-10-22T20:22:24.160Z,1.83
2022-10-22T20:24:52.768Z,1.27
2022-10-22T20:27:21.682Z,1.33
2022-10-22T20:29:51.009Z,1.23
2022-10-22T20:32:22.060Z,1.00
2022-10-22T20:40:11.679Z,2.63
2022-10-22T20:42:42.074Z,3.20
2022-10-22T20:45:15.060Z,1.30
2022-10-22T20:47:51.219Z,1.77
2022-10-22T20:50:26.539Z,1.30
2022-10-22T20:52:55.253Z,1.00
2022-10-22T20:55:24.651Z,1.77
2022-10-22T21:00:39.807Z,1.00
2022-10-22T21:03:08.411Z,1.47
2022-10-22T21:05:36.710Z,1.57
2022-10-22T21:08:06.223Z,1.73
2022-10-22T21:10:37.361Z,1.27
2022-10-22T21:13:11.173Z,1.10
2022-10-22T21:15:44.258Z,1.77
2022-10-22T21:34:12.719Z,1.20
2022-10-22T21:36:41.046Z,1.83
2022-10-22T21:39:08.967Z,1.33
2022-10-22T21:41:40.642Z,1.40
2022-10-22T21:44:08.701Z,0.97
2022-10-22T21:46:37.084Z,2.10
2022-10-22T21:49:06.728Z,1.07
2022-10-22T22:07:04.318Z,1.90
2022-10-22T22:09:31.772Z,1.30
2022-10-22T22:12:04.436Z,1.50
2022-10-22T22:14:34.862Z,1.40
2022-10-22T22:17:02.570Z,1.67
2022-10-22T22:19:41.961Z,1.17
2022-10-22T22:22:55.324Z,1.43
2022-10-22T22:25:25.761Z,1.40
2022-10-22T22:38:23.617Z,1.10
2022-10-22T22:40:51.330Z,1.40
2022-10-22T22:43:20.305Z,1.60
2022-10-22T22:45:48.281Z,1.70
2022-10-22T22:48:15.839Z,1.33
2022-10-22T22:50:44.609Z,1.10
2022-10-22T22:53:12.293Z,1.73
2022-10-22T22:55:41.892Z,1.40
2022-10-22T23:03:14.730Z,1.13
2022-10-22T23:05:42.960Z,1.83
2022-10-22T23:08:11.229Z,1.30
2022-10-22T23:10:38.707Z,1.50
2022-10-22T23:13:06.101Z,1.63
2022-10-22T23:15:35.070Z,1.47
2022-10-22T23:18:04.779Z,1.50
2022-10-22T23:23:16.043Z,1.93
2022-10-22T23:25:46.110Z,1.50
2022-10-22T23:28:14.028Z,1.63
2022-10-22T23:30:45.270Z,1.70
2022-10-22T23:33:12.892Z,2.00
2022-10-22T23:35:41.909Z,1.70
2022-10-22T23:38:09.608Z,1.93
2022-10-22T23:43:41.513Z,1.60
2022-10-22T23:46:14.093Z,2.43
2022-10-22T23:48:47.512Z,2.03
2022-10-22T23:51:17.171Z,1.67
2022-10-22T23:53:45.125Z,2.13
2022-10-22T23:56:16.565Z,1.70
2022-10-22T23:58:51.228Z,2.30
